logo
Search for airport 
image banner adimage banner adimage banner ad
image banner ad

EHS041 - Kootwijkerbroek

Located in , Netherlands

ICAO - , IATA -

Data provided by Airmate  

General information

Coordinates: N52°10'26" E5°41'6"
Elevation is 51 feet MSL.
 
View others Airports in Gelderland

Operational data

Special qualification required
Current time UTC:
Current local time:
Weather at : EHDL - Deelen ( 18 km )
METAR: EHDL 150955Z AUTO 21018KT 130V270 9999 SCT027 BKN031 OVC040 11/04 Q1005 BLU
View NOTAMs / SUP AIP / TFR affecting this airport [VIEW]
Communications frequencies: [VIEW]

Runways:

Airport contact information

Address: Netherlands

Satellite view of EHS041